sensor_id;sensor_type;location;lat;lon;timestamp;temperature;humidity
36442;DHT22;64346;50.820;16.274;2023-08-01T00:01:59;19.20;99.90
36442;DHT22;64346;50.820;16.274;2023-08-01T00:04:26;19.10;99.90
36442;DHT22;64346;50.820;16.274;2023-08-01T00:06:53;19.20;99.90
36442;DHT22;64346;50.820;16.274;2023-08-01T00:09:24;19.20;99.90
36442;DHT22;64346;50.820;16.274;2023-08-01T00:11:51;19.10;99.90
36442;DHT22;64346;50.820;16.274;2023-08-01T00:14:18;19.20;99.90
36442;DHT22;64346;50.820;16.274;2023-08-01T00:16:48;19.10;99.90
36442;DHT22;64346;50.820;16.274;2023-08-01T00:19:18;19.10;99.90
36442;DHT22;64346;50.820;16.274;2023-08-01T00:21:49;19.10;99.90
36442;DHT22;64346;50.820;16.274;2023-08-01T00:24:19;19.10;99.90
36442;DHT22;64346;50.820;16.274;2023-08-01T00:26:46;19.10;99.90
36442;DHT22;64346;50.820;16.274;2023-08-01T00:29:16;19.10;99.90
36442;DHT22;64346;50.820;16.274;2023-08-01T00:31:43;19.10;99.90
36442;DHT22;64346;50.820;16.274;2023-08-01T00:34:11;19.10;99.90
36442;DHT22;64346;50.820;16.274;2023-08-01T00:36:38;19.10;99.90
36442;DHT22;64346;50.820;16.274;2023-08-01T00:39:06;19.10;99.90
36442;DHT22;64346;50.820;16.274;2023-08-01T00:41:33;19.10;99.90
36442;DHT22;64346;50.820;16.274;2023-08-01T00:44:01;19.10;99.90
36442;DHT22;64346;50.820;16.274;2023-08-01T00:46:32;19.10;99.90
36442;DHT22;64346;50.820;16.274;2023-08-01T00:48:59;19.10;99.90
36442;DHT22;64346;50.820;16.274;2023-08-01T00:51:30;19.10;99.90
36442;DHT22;64346;50.820;16.274;2023-08-01T00:53:59;19.10;99.90
36442;DHT22;64346;50.820;16.274;2023-08-01T00:56:27;19.10;99.90
36442;DHT22;64346;50.820;16.274;2023-08-01T00:58:55;19.00;99.90
36442;DHT22;64346;50.820;16.274;2023-08-01T01:01:24;19.00;99.90
36442;DHT22;64346;50.820;16.274;2023-08-01T01:03:52;19.00;99.90
36442;DHT22;64346;50.820;16.274;2023-08-01T01:06:32;19.00;99.90
36442;DHT22;64346;50.820;16.274;2023-08-01T01:09:01;19.00;99.90
36442;DHT22;64346;50.820;16.274;2023-08-01T01:11:28;19.00;99.90
36442;DHT22;64346;50.820;16.274;2023-08-01T01:13:55;19.00;99.90
36442;DHT22;64346;50.820;16.274;2023-08-01T01:16:22;19.00;99.90
36442;DHT22;64346;50.820;16.274;2023-08-01T01:18:50;19.00;99.90
36442;DHT22;64346;50.820;16.274;2023-08-01T01:21:17;19.00;99.90
36442;DHT22;64346;50.820;16.274;2023-08-01T01:23:45;19.10;99.90
36442;DHT22;64346;50.820;16.274;2023-08-01T01:26:13;19.00;99.90
36442;DHT22;64346;50.820;16.274;2023-08-01T01:28:42;19.00;99.90
36442;DHT22;64346;50.820;16.274;2023-08-01T01:31:10;19.00;99.90
36442;DHT22;64346;50.820;16.274;2023-08-01T01:33:37;18.90;99.90
36442;DHT22;64346;50.820;16.274;2023-08-01T01:36:05;18.90;99.90
36442;DHT22;64346;50.820;16.274;2023-08-01T01:38:32;18.90;99.90
36442;DHT22;64346;50.820;16.274;2023-08-01T01:41:00;18.90;99.90
36442;DHT22;64346;50.820;16.274;2023-08-01T01:43:27;18.90;99.90
36442;DHT22;64346;50.820;16.274;2023-08-01T01:45:56;18.90;99.90
36442;DHT22;64346;50.820;16.274;2023-08-01T01:48:24;18.80;99.90
36442;DHT22;64346;50.820;16.274;2023-08-01T01:50:51;18.80;99.90
36442;DHT22;64346;50.820;16.274;2023-08-01T01:53:20;18.70;99.90
36442;DHT22;64346;50.820;16.274;2023-08-01T01:55:50;18.70;99.90
36442;DHT22;64346;50.820;16.274;2023-08-01T01:58:17;18.60;99.90
36442;DHT22;64346;50.820;16.274;2023-08-01T02:00:48;18.60;99.90
36442;DHT22;64346;50.820;16.274;2023-08-01T02:03:15;18.60;99.90
36442;DHT22;64346;50.820;16.274;2023-08-01T02:05:42;18.50;99.90
36442;DHT22;64346;50.820;16.274;2023-08-01T02:08:09;18.60;99.90
36442;DHT22;64346;50.820;16.274;2023-08-01T02:10:39;18.50;99.90
36442;DHT22;64346;50.820;16.274;2023-08-01T02:13:09;18.50;99.90
36442;DHT22;64346;50.820;16.274;2023-08-01T02:15:36;18.40;99.90
36442;DHT22;64346;50.820;16.274;2023-08-01T02:18:03;18.40;99.90
36442;DHT22;64346;50.820;16.274;2023-08-01T02:20:33;18.40;99.90
36442;DHT22;64346;50.820;16.274;2023-08-01T02:23:00;18.40;99.90
36442;DHT22;64346;50.820;16.274;2023-08-01T02:25:28;18.30;99.90
36442;DHT22;64346;50.820;16.274;2023-08-01T02:27:57;18.30;99.90
36442;DHT22;64346;50.820;16.274;2023-08-01T02:30:24;18.30;99.90
36442;DHT22;64346;50.820;16.274;2023-08-01T02:32:54;18.30;99.90
36442;DHT22;64346;50.820;16.274;2023-08-01T02:35:21;18.30;99.90
36442;DHT22;64346;50.820;16.274;2023-08-01T02:37:49;18.20;99.90
36442;DHT22;64346;50.820;16.274;2023-08-01T02:40:19;18.20;99.90
36442;DHT22;64346;50.820;16.274;2023-08-01T02:42:49;18.20;99.90
36442;DHT22;64346;50.820;16.274;2023-08-01T02:45:17;18.20;99.90
36442;DHT22;64346;50.820;16.274;2023-08-01T02:47:45;18.20;99.90
36442;DHT22;64346;50.820;16.274;2023-08-01T02:50:14;18.10;99.90
36442;DHT22;64346;50.820;16.274;2023-08-01T02:52:44;18.10;99.90
36442;DHT22;64346;50.820;16.274;2023-08-01T02:55:11;18.10;99.90
36442;DHT22;64346;50.820;16.274;2023-08-01T02:57:40;18.10;99.90
36442;DHT22;64346;50.820;16.274;2023-08-01T03:00:08;18.10;99.90
36442;DHT22;64346;50.820;16.274;2023-08-01T03:02:35;18.10;99.90
36442;DHT22;64346;50.820;16.274;2023-08-01T03:05:03;18.00;99.90
36442;DHT22;64346;50.820;16.274;2023-08-01T03:07:31;18.00;99.90
36442;DHT22;64346;50.820;16.274;2023-08-01T03:09:58;18.10;99.90
36442;DHT22;64346;50.820;16.274;2023-08-01T03:12:28;18.00;99.90
36442;DHT22;64346;50.820;16.274;2023-08-01T03:15:00;18.00;99.90
36442;DHT22;64346;50.820;16.274;2023-08-01T03:17:28;18.00;99.90
36442;DHT22;64346;50.820;16.274;2023-08-01T03:19:55;18.00;99.90
36442;DHT22;64346;50.820;16.274;2023-08-01T03:22:22;17.90;99.90
36442;DHT22;64346;50.820;16.274;2023-08-01T03:24:49;17.90;99.90
36442;DHT22;64346;50.820;16.274;2023-08-01T03:27:17;17.90;99.90
36442;DHT22;64346;50.820;16.274;2023-08-01T03:29:44;17.90;99.90
36442;DHT22;64346;50.820;16.274;2023-08-01T03:32:14;17.90;99.90
36442;DHT22;64346;50.820;16.274;2023-08-01T03:34:41;17.90;99.90
36442;DHT22;64346;50.820;16.274;2023-08-01T03:37:09;17.90;99.90
36442;DHT22;64346;50.820;16.274;2023-08-01T03:39:38;17.80;99.90
36442;DHT22;64346;50.820;16.274;2023-08-01T03:42:08;17.80;99.90
36442;DHT22;64346;50.820;16.274;2023-08-01T03:44:36;17.80;99.90
36442;DHT22;64346;50.820;16.274;2023-08-01T03:47:03;17.80;99.90
36442;DHT22;64346;50.820;16.274;2023-08-01T03:49:31;17.80;99.90
36442;DHT22;64346;50.820;16.274;2023-08-01T03:52:00;17.80;99.90
36442;DHT22;64346;50.820;16.274;2023-08-01T03:54:27;17.80;99.90
36442;DHT22;64346;50.820;16.274;2023-08-01T03:56:57;17.80;99.90
36442;DHT22;64346;50.820;16.274;2023-08-01T03:59:25;17.80;99.90
36442;DHT22;64346;50.820;16.274;2023-08-01T04:01:52;17.70;99.90
36442;DHT22;64346;50.820;16.274;2023-08-01T04:04:22;17.80;99.90
36442;DHT22;64346;50.820;16.274;2023-08-01T04:06:49;17.80;99.90
36442;DHT22;64346;50.820;16.274;2023-08-01T04:09:19;17.80;99.90
36442;DHT22;64346;50.820;16.274;2023-08-01T04:11:46;17.80;99.90
36442;DHT22;64346;50.820;16.274;2023-08-01T04:14:14;17.80;99.90
36442;DHT22;64346;50.820;16.274;2023-08-01T04:16:41;17.80;99.90
36442;DHT22;64346;50.820;16.274;2023-08-01T04:19:11;17.70;99.90
36442;DHT22;64346;50.820;16.274;2023-08-01T04:21:39;17.70;99.90
36442;DHT22;64346;50.820;16.274;2023-08-01T04:24:06;17.70;99.90
36442;DHT22;64346;50.820;16.274;2023-08-01T04:26:33;17.70;99.90
36442;DHT22;64346;50.820;16.274;2023-08-01T04:29:00;17.60;99.90
36442;DHT22;64346;50.820;16.274;2023-08-01T04:31:28;17.50;99.90
36442;DHT22;64346;50.820;16.274;2023-08-01T04:33:57;17.50;99.90
36442;DHT22;64346;50.820;16.274;2023-08-01T04:36:25;17.40;99.90
36442;DHT22;64346;50.820;16.274;2023-08-01T04:38:52;17.40;99.90
36442;DHT22;64346;50.820;16.274;2023-08-01T04:41:22;17.40;99.90
36442;DHT22;64346;50.820;16.274;2023-08-01T04:43:49;17.30;99.90
36442;DHT22;64346;50.820;16.274;2023-08-01T04:46:19;17.30;99.90
36442;DHT22;64346;50.820;16.274;2023-08-01T04:48:46;17.30;99.90
36442;DHT22;64346;50.820;16.274;2023-08-01T04:51:16;17.30;99.90
36442;DHT22;64346;50.820;16.274;2023-08-01T04:53:45;17.30;99.90
36442;DHT22;64346;50.820;16.274;2023-08-01T04:56:13;17.30;99.90
36442;DHT22;64346;50.820;16.274;2023-08-01T04:58:40;17.30;99.90
36442;DHT22;64346;50.820;16.274;2023-08-01T05:01:08;17.30;99.90
36442;DHT22;64346;50.820;16.274;2023-08-01T05:03:35;17.30;99.90
36442;DHT22;64346;50.820;16.274;2023-08-01T05:06:02;17.30;99.90
36442;DHT22;64346;50.820;16.274;2023-08-01T05:08:30;17.30;99.90
36442;DHT22;64346;50.820;16.274;2023-08-01T05:10:57;17.30;99.90
36442;DHT22;64346;50.820;16.274;2023-08-01T05:13:24;17.40;99.90
36442;DHT22;64346;50.820;16.274;2023-08-01T05:15:52;17.40;99.90
36442;DHT22;64346;50.820;16.274;2023-08-01T05:18:19;17.40;99.90
36442;DHT22;64346;50.820;16.274;2023-08-01T05:20:46;17.40;99.90
36442;DHT22;64346;50.820;16.274;2023-08-01T05:23:16;17.40;99.90
36442;DHT22;64346;50.820;16.274;2023-08-01T05:25:49;17.40;99.90
36442;DHT22;64346;50.820;16.274;2023-08-01T05:28:18;17.50;99.90
36442;DHT22;64346;50.820;16.274;2023-08-01T05:30:50;17.50;99.90
36442;DHT22;64346;50.820;16.274;2023-08-01T05:33:20;17.50;99.90
36442;DHT22;64346;50.820;16.274;2023-08-01T05:35:48;17.50;99.90
36442;DHT22;64346;50.820;16.274;2023-08-01T05:38:16;17.50;99.90
36442;DHT22;64346;50.820;16.274;2023-08-01T05:40:43;17.60;99.90
36442;DHT22;64346;50.820;16.274;2023-08-01T05:43:10;17.60;99.90
36442;DHT22;64346;50.820;16.274;2023-08-01T05:45:38;17.60;99.90
36442;DHT22;64346;50.820;16.274;2023-08-01T05:48:07;17.60;99.90
36442;DHT22;64346;50.820;16.274;2023-08-01T05:50:35;17.60;99.90
36442;DHT22;64346;50.820;16.274;2023-08-01T05:53:02;17.60;99.90
36442;DHT22;64346;50.820;16.274;2023-08-01T05:55:29;17.70;99.90
36442;DHT22;64346;50.820;16.274;2023-08-01T05:57:57;17.60;99.90
36442;DHT22;64346;50.820;16.274;2023-08-01T06:00:24;17.70;99.90
36442;DHT22;64346;50.820;16.274;2023-08-01T06:02:55;17.70;99.90
36442;DHT22;64346;50.820;16.274;2023-08-01T06:05:23;17.80;99.90
36442;DHT22;64346;50.820;16.274;2023-08-01T06:07:50;17.70;99.90
36442;DHT22;64346;50.820;16.274;2023-08-01T06:10:24;17.80;99.90
36442;DHT22;64346;50.820;16.274;2023-08-01T06:12:51;17.80;99.90
36442;DHT22;64346;50.820;16.274;2023-08-01T06:15:23;17.80;99.90
36442;DHT22;64346;50.820;16.274;2023-08-01T06:17:52;17.80;99.90
36442;DHT22;64346;50.820;16.274;2023-08-01T06:20:20;17.80;99.90
36442;DHT22;64346;50.820;16.274;2023-08-01T06:22:47;17.80;99.90
36442;DHT22;64346;50.820;16.274;2023-08-01T06:25:17;17.70;99.90
36442;DHT22;64346;50.820;16.274;2023-08-01T06:27:44;17.70;99.90
36442;DHT22;64346;50.820;16.274;2023-08-01T06:30:12;17.70;99.90
36442;DHT22;64346;50.820;16.274;2023-08-01T06:32:41;17.70;99.90
36442;DHT22;64346;50.820;16.274;2023-08-01T06:35:09;17.80;99.90
36442;DHT22;64346;50.820;16.274;2023-08-01T06:37:36;17.80;99.90
36442;DHT22;64346;50.820;16.274;2023-08-01T06:40:06;17.80;99.90
36442;DHT22;64346;50.820;16.274;2023-08-01T06:42:33;17.90;99.90
36442;DHT22;64346;50.820;16.274;2023-08-01T06:45:01;18.00;99.90
36442;DHT22;64346;50.820;16.274;2023-08-01T06:47:28;18.00;99.90
36442;DHT22;64346;50.820;16.274;2023-08-01T06:49:55;18.10;99.90
36442;DHT22;64346;50.820;16.274;2023-08-01T06:52:23;18.10;99.90
36442;DHT22;64346;50.820;16.274;2023-08-01T06:54:50;18.00;99.90
36442;DHT22;64346;50.820;16.274;2023-08-01T06:57:17;18.10;99.90
36442;DHT22;64346;50.820;16.274;2023-08-01T06:59:45;18.10;99.90
36442;DHT22;64346;50.820;16.274;2023-08-01T07:02:12;18.00;99.90
36442;DHT22;64346;50.820;16.274;2023-08-01T07:04:40;18.10;99.90
36442;DHT22;64346;50.820;16.274;2023-08-01T07:07:07;18.10;99.90
36442;DHT22;64346;50.820;16.274;2023-08-01T07:09:34;18.00;99.90
36442;DHT22;64346;50.820;16.274;2023-08-01T07:12:04;18.00;99.90
36442;DHT22;64346;50.820;16.274;2023-08-01T07:14:32;18.10;99.90
36442;DHT22;64346;50.820;16.274;2023-08-01T07:16:59;18.00;99.90
36442;DHT22;64346;50.820;16.274;2023-08-01T07:19:29;18.10;99.90
36442;DHT22;64346;50.820;16.274;2023-08-01T07:21:57;18.30;99.90
36442;DHT22;64346;50.820;16.274;2023-08-01T07:24:25;18.30;99.90
36442;DHT22;64346;50.820;16.274;2023-08-01T07:26:55;18.40;99.90
36442;DHT22;64346;50.820;16.274;2023-08-01T07:29:25;18.30;99.90
36442;DHT22;64346;50.820;16.274;2023-08-01T07:31:52;18.30;99.90
36442;DHT22;64346;50.820;16.274;2023-08-01T07:34:19;18.20;99.90
36442;DHT22;64346;50.820;16.274;2023-08-01T07:36:48;18.20;99.90
36442;DHT22;64346;50.820;16.274;2023-08-01T07:39:18;18.20;99.90
36442;DHT22;64346;50.820;16.274;2023-08-01T07:41:45;18.20;99.90
36442;DHT22;64346;50.820;16.274;2023-08-01T07:44:12;18.40;99.90
36442;DHT22;64346;50.820;16.274;2023-08-01T07:46:42;18.50;99.90
36442;DHT22;64346;50.820;16.274;2023-08-01T07:49:09;18.80;99.90
36442;DHT22;64346;50.820;16.274;2023-08-01T07:51:36;19.00;99.90
36442;DHT22;64346;50.820;16.274;2023-08-01T07:54:06;19.30;99.90
36442;DHT22;64346;50.820;16.274;2023-08-01T07:56:35;19.50;99.90
36442;DHT22;64346;50.820;16.274;2023-08-01T07:59:05;19.60;99.90
36442;DHT22;64346;50.820;16.274;2023-08-01T08:01:32;19.50;99.90
36442;DHT22;64346;50.820;16.274;2023-08-01T08:04:00;19.40;99.90
36442;DHT22;64346;50.820;16.274;2023-08-01T08:06:29;19.30;99.90
36442;DHT22;64346;50.820;16.274;2023-08-01T08:08:59;19.20;99.90
36442;DHT22;64346;50.820;16.274;2023-08-01T08:11:26;19.00;99.90
36442;DHT22;64346;50.820;16.274;2023-08-01T08:13:54;19.00;99.90
36442;DHT22;64346;50.820;16.274;2023-08-01T08:16:25;18.90;99.90
36442;DHT22;64346;50.820;16.274;2023-08-01T08:18:53;18.80;99.90
36442;DHT22;64346;50.820;16.274;2023-08-01T08:21:20;18.80;99.90
36442;DHT22;64346;50.820;16.274;2023-08-01T08:23:52;18.90;99.90
36442;DHT22;64346;50.820;16.274;2023-08-01T08:26:19;19.10;99.90
36442;DHT22;64346;50.820;16.274;2023-08-01T08:28:49;19.20;99.90
36442;DHT22;64346;50.820;16.274;2023-08-01T08:31:19;19.30;99.90
36442;DHT22;64346;50.820;16.274;2023-08-01T08:33:47;19.30;99.90
36442;DHT22;64346;50.820;16.274;2023-08-01T08:36:14;19.40;99.90
36442;DHT22;64346;50.820;16.274;2023-08-01T08:38:41;19.30;99.90
36442;DHT22;64346;50.820;16.274;2023-08-01T08:41:13;19.30;99.90
36442;DHT22;64346;50.820;16.274;2023-08-01T08:43:47;19.50;99.90
36442;DHT22;64346;50.820;16.274;2023-08-01T08:46:16;19.60;99.90
36442;DHT22;64346;50.820;16.274;2023-08-01T08:48:44;19.80;99.90
36442;DHT22;64346;50.820;16.274;2023-08-01T08:51:12;19.90;99.90
36442;DHT22;64346;50.820;16.274;2023-08-01T08:53:42;20.10;99.90
36442;DHT22;64346;50.820;16.274;2023-08-01T08:56:12;20.20;99.90
36442;DHT22;64346;50.820;16.274;2023-08-01T08:58:42;20.30;99.90
36442;DHT22;64346;50.820;16.274;2023-08-01T09:01:10;20.50;99.90
36442;DHT22;64346;50.820;16.274;2023-08-01T09:03:40;20.20;99.90
36442;DHT22;64346;50.820;16.274;2023-08-01T09:06:12;20.10;99.90
36442;DHT22;64346;50.820;16.274;2023-08-01T09:08:47;20.30;99.90
36442;DHT22;64346;50.820;16.274;2023-08-01T09:11:16;20.70;99.90
36442;DHT22;64346;50.820;16.274;2023-08-01T09:13:44;21.10;99.90
36442;DHT22;64346;50.820;16.274;2023-08-01T09:16:14;21.70;99.90
36442;DHT22;64346;50.820;16.274;2023-08-01T09:18:52;22.50;99.90
36442;DHT22;64346;50.820;16.274;2023-08-01T09:21:22;23.90;99.90
36442;DHT22;64346;50.820;16.274;2023-08-01T09:23:50;25.60;99.90
36442;DHT22;64346;50.820;16.274;2023-08-01T09:26:21;26.00;99.90
36442;DHT22;64346;50.820;16.274;2023-08-01T09:28:57;25.80;99.90
36442;DHT22;64346;50.820;16.274;2023-08-01T09:31:43;25.50;99.90
36442;DHT22;64346;50.820;16.274;2023-08-01T09:34:23;23.80;99.90
36442;DHT22;64346;50.820;16.274;2023-08-01T09:37:00;22.70;99.90
36442;DHT22;64346;50.820;16.274;2023-08-01T09:39:28;22.10;99.90
36442;DHT22;64346;50.820;16.274;2023-08-01T09:42:03;21.30;99.90
36442;DHT22;64346;50.820;16.274;2023-08-01T09:44:31;21.20;99.90
36442;DHT22;64346;50.820;16.274;2023-08-01T09:47:08;21.20;99.90
36442;DHT22;64346;50.820;16.274;2023-08-01T09:49:35;20.90;99.90
36442;DHT22;64346;50.820;16.274;2023-08-01T09:52:03;20.90;99.90
36442;DHT22;64346;50.820;16.274;2023-08-01T09:54:30;20.80;99.90
36442;DHT22;64346;50.820;16.274;2023-08-01T09:56:58;20.50;99.90
36442;DHT22;64346;50.820;16.274;2023-08-01T09:59:26;20.40;99.90
36442;DHT22;64346;50.820;16.274;2023-08-01T10:01:55;20.50;99.90
36442;DHT22;64346;50.820;16.274;2023-08-01T10:04:30;20.50;99.90
36442;DHT22;64346;50.820;16.274;2023-08-01T10:07:05;20.40;99.90
36442;DHT22;64346;50.820;16.274;2023-08-01T10:09:36;20.60;99.90
36442;DHT22;64346;50.820;16.274;2023-08-01T10:12:05;20.80;99.90
36442;DHT22;64346;50.820;16.274;2023-08-01T10:14:35;20.80;99.90
36442;DHT22;64346;50.820;16.274;2023-08-01T10:17:03;20.90;99.90
36442;DHT22;64346;50.820;16.274;2023-08-01T10:19:34;21.00;99.90
36442;DHT22;64346;50.820;16.274;2023-08-01T10:22:01;21.10;99.90
36442;DHT22;64346;50.820;16.274;2023-08-01T10:24:30;21.20;99.90
36442;DHT22;64346;50.820;16.274;2023-08-01T10:27:12;21.10;99.90
36442;DHT22;64346;50.820;16.274;2023-08-01T10:29:40;21.00;99.90
36442;DHT22;64346;50.820;16.274;2023-08-01T10:32:08;20.90;99.90
36442;DHT22;64346;50.820;16.274;2023-08-01T10:34:38;21.20;99.90
36442;DHT22;64346;50.820;16.274;2023-08-01T10:37:05;21.60;99.90
36442;DHT22;64346;50.820;16.274;2023-08-01T10:39:35;21.90;99.90
36442;DHT22;64346;50.820;16.274;2023-08-01T10:42:04;22.30;99.90
36442;DHT22;64346;50.820;16.274;2023-08-01T10:44:44;22.50;99.90
36442;DHT22;64346;50.820;16.274;2023-08-01T10:47:11;23.10;99.90
36442;DHT22;64346;50.820;16.274;2023-08-01T10:49:43;23.40;99.90
36442;DHT22;64346;50.820;16.274;2023-08-01T10:52:27;23.30;99.90
36442;DHT22;64346;50.820;16.274;2023-08-01T10:55:03;23.20;99.90
36442;DHT22;64346;50.820;16.274;2023-08-01T10:57:31;22.90;99.90
36442;DHT22;64346;50.820;16.274;2023-08-01T10:59:59;22.40;99.90
36442;DHT22;64346;50.820;16.274;2023-08-01T11:02:27;22.50;99.90
36442;DHT22;64346;50.820;16.274;2023-08-01T11:05:05;22.80;99.90
36442;DHT22;64346;50.820;16.274;2023-08-01T11:07:35;23.30;99.90
36442;DHT22;64346;50.820;16.274;2023-08-01T11:12:35;24.20;99.90
36442;DHT22;64346;50.820;16.274;2023-08-01T11:15:05;24.20;99.90
36442;DHT22;64346;50.820;16.274;2023-08-01T11:17:36;24.30;99.90
36442;DHT22;64346;50.820;16.274;2023-08-01T11:20:08;24.30;99.90
36442;DHT22;64346;50.820;16.274;2023-08-01T11:22:48;23.80;99.90
36442;DHT22;64346;50.820;16.274;2023-08-01T11:25:16;23.50;99.90
36442;DHT22;64346;50.820;16.274;2023-08-01T11:27:46;23.10;99.90
36442;DHT22;64346;50.820;16.274;2023-08-01T11:30:14;22.90;99.90
36442;DHT22;64346;50.820;16.274;2023-08-01T11:32:41;22.60;99.90
36442;DHT22;64346;50.820;16.274;2023-08-01T11:35:08;22.40;99.90
36442;DHT22;64346;50.820;16.274;2023-08-01T11:37:43;22.10;99.90
36442;DHT22;64346;50.820;16.274;2023-08-01T11:40:11;21.90;99.90
36442;DHT22;64346;50.820;16.274;2023-08-01T11:42:39;21.90;99.90
36442;DHT22;64346;50.820;16.274;2023-08-01T11:45:12;21.90;99.90
36442;DHT22;64346;50.820;16.274;2023-08-01T11:47:49;21.90;99.90
36442;DHT22;64346;50.820;16.274;2023-08-01T11:50:24;21.80;99.90
36442;DHT22;64346;50.820;16.274;2023-08-01T11:52:52;22.10;99.90
36442;DHT22;64346;50.820;16.274;2023-08-01T11:55:25;22.20;99.90
36442;DHT22;64346;50.820;16.274;2023-08-01T11:57:53;22.50;99.90
36442;DHT22;64346;50.820;16.274;2023-08-01T12:00:22;22.80;99.90
36442;DHT22;64346;50.820;16.274;2023-08-01T12:03:03;22.90;99.90
36442;DHT22;64346;50.820;16.274;2023-08-01T12:05:34;22.80;99.90
36442;DHT22;64346;50.820;16.274;2023-08-01T12:10:43;22.80;99.90
36442;DHT22;64346;50.820;16.274;2023-08-01T12:13:21;22.80;99.90
36442;DHT22;64346;50.820;16.274;2023-08-01T12:15:50;22.50;99.90
36442;DHT22;64346;50.820;16.274;2023-08-01T12:18:24;22.30;99.90
36442;DHT22;64346;50.820;16.274;2023-08-01T12:20:55;22.30;99.90
36442;DHT22;64346;50.820;16.274;2023-08-01T12:23:22;22.30;99.90
36442;DHT22;64346;50.820;16.274;2023-08-01T12:25:50;22.30;99.90
36442;DHT22;64346;50.820;16.274;2023-08-01T12:28:19;22.10;99.90
36442;DHT22;64346;50.820;16.274;2023-08-01T12:30:49;21.80;99.90
36442;DHT22;64346;50.820;16.274;2023-08-01T12:33:19;21.80;99.90
36442;DHT22;64346;50.820;16.274;2023-08-01T12:35:46;21.80;99.90
36442;DHT22;64346;50.820;16.274;2023-08-01T12:38:13;21.90;99.90
36442;DHT22;64346;50.820;16.274;2023-08-01T12:40:41;22.00;99.90
36442;DHT22;64346;50.820;16.274;2023-08-01T12:43:12;22.00;99.90
36442;DHT22;64346;50.820;16.274;2023-08-01T12:45:40;22.20;99.90
36442;DHT22;64346;50.820;16.274;2023-08-01T12:48:07;22.30;99.90
36442;DHT22;64346;50.820;16.274;2023-08-01T12:50:35;22.60;99.90
36442;DHT22;64346;50.820;16.274;2023-08-01T12:53:02;22.70;99.90
36442;DHT22;64346;50.820;16.274;2023-08-01T12:55:29;22.80;99.90
36442;DHT22;64346;50.820;16.274;2023-08-01T12:57:56;22.70;99.90
36442;DHT22;64346;50.820;16.274;2023-08-01T13:00:24;22.70;99.90
36442;DHT22;64346;50.820;16.274;2023-08-01T13:02:51;22.90;99.90
36442;DHT22;64346;50.820;16.274;2023-08-01T13:05:19;22.90;99.90
36442;DHT22;64346;50.820;16.274;2023-08-01T13:07:46;22.90;99.90
36442;DHT22;64346;50.820;16.274;2023-08-01T13:10:16;22.90;99.90
36442;DHT22;64346;50.820;16.274;2023-08-01T13:12:43;23.00;99.90
36442;DHT22;64346;50.820;16.274;2023-08-01T13:15:11;23.00;99.90
36442;DHT22;64346;50.820;16.274;2023-08-01T13:17:43;23.00;99.90
36442;DHT22;64346;50.820;16.274;2023-08-01T13:20:11;23.00;99.90
36442;DHT22;64346;50.820;16.274;2023-08-01T13:22:38;23.20;99.90
36442;DHT22;64346;50.820;16.274;2023-08-01T13:25:05;23.30;99.90
36442;DHT22;64346;50.820;16.274;2023-08-01T13:27:37;23.30;99.90
36442;DHT22;64346;50.820;16.274;2023-08-01T13:30:04;23.30;99.90
36442;DHT22;64346;50.820;16.274;2023-08-01T13:32:34;23.10;99.90
36442;DHT22;64346;50.820;16.274;2023-08-01T13:35:02;22.90;99.90
36442;DHT22;64346;50.820;16.274;2023-08-01T13:37:29;22.60;99.90
36442;DHT22;64346;50.820;16.274;2023-08-01T13:39:57;22.40;99.90
36442;DHT22;64346;50.820;16.274;2023-08-01T13:42:25;22.20;99.90
36442;DHT22;64346;50.820;16.274;2023-08-01T13:44:56;22.20;99.90
36442;DHT22;64346;50.820;16.274;2023-08-01T13:47:26;22.40;99.90
36442;DHT22;64346;50.820;16.274;2023-08-01T13:49:53;22.70;99.90
36442;DHT22;64346;50.820;16.274;2023-08-01T13:52:21;23.00;99.90
36442;DHT22;64346;50.820;16.274;2023-08-01T13:54:50;23.10;99.90
36442;DHT22;64346;50.820;16.274;2023-08-01T13:57:17;23.30;99.90
36442;DHT22;64346;50.820;16.274;2023-08-01T13:59:45;23.30;99.90
36442;DHT22;64346;50.820;16.274;2023-08-01T14:02:28;23.30;99.90
36442;DHT22;64346;50.820;16.274;2023-08-01T14:04:57;23.10;99.90
36442;DHT22;64346;50.820;16.274;2023-08-01T14:07:25;23.00;99.90
36442;DHT22;64346;50.820;16.274;2023-08-01T14:09:52;23.00;99.90
36442;DHT22;64346;50.820;16.274;2023-08-01T14:12:19;22.90;99.90
36442;DHT22;64346;50.820;16.274;2023-08-01T14:14:47;22.90;99.90
36442;DHT22;64346;50.820;16.274;2023-08-01T14:17:16;22.90;99.90
36442;DHT22;64346;50.820;16.274;2023-08-01T14:19:44;22.70;99.90
36442;DHT22;64346;50.820;16.274;2023-08-01T14:22:11;22.70;99.90
36442;DHT22;64346;50.820;16.274;2023-08-01T14:24:39;22.40;99.90
36442;DHT22;64346;50.820;16.274;2023-08-01T14:27:06;22.20;99.90
36442;DHT22;64346;50.820;16.274;2023-08-01T14:29:33;21.90;99.90
36442;DHT22;64346;50.820;16.274;2023-08-01T14:32:01;21.80;99.90
36442;DHT22;64346;50.820;16.274;2023-08-01T14:34:28;21.70;99.90
36442;DHT22;64346;50.820;16.274;2023-08-01T14:36:56;21.80;99.90
36442;DHT22;64346;50.820;16.274;2023-08-01T14:39:23;21.90;99.90
36442;DHT22;64346;50.820;16.274;2023-08-01T14:41:50;21.80;99.90
36442;DHT22;64346;50.820;16.274;2023-08-01T14:44:33;21.70;99.90
36442;DHT22;64346;50.820;16.274;2023-08-01T14:47:01;21.50;99.90
36442;DHT22;64346;50.820;16.274;2023-08-01T14:49:28;21.50;99.90
36442;DHT22;64346;50.820;16.274;2023-08-01T14:51:56;21.60;99.90
36442;DHT22;64346;50.820;16.274;2023-08-01T14:54:24;21.50;99.90
36442;DHT22;64346;50.820;16.274;2023-08-01T14:57:06;21.50;99.90
36442;DHT22;64346;50.820;16.274;2023-08-01T14:59:34;21.40;99.90
36442;DHT22;64346;50.820;16.274;2023-08-01T15:02:01;21.40;99.90
36442;DHT22;64346;50.820;16.274;2023-08-01T15:04:28;21.40;99.90
36442;DHT22;64346;50.820;16.274;2023-08-01T15:06:56;21.50;99.90
36442;DHT22;64346;50.820;16.274;2023-08-01T15:09:23;21.40;99.90
36442;DHT22;64346;50.820;16.274;2023-08-01T15:11:53;21.20;99.90
36442;DHT22;64346;50.820;16.274;2023-08-01T15:14:22;21.10;99.90
36442;DHT22;64346;50.820;16.274;2023-08-01T15:16:50;21.10;99.90
36442;DHT22;64346;50.820;16.274;2023-08-01T15:19:17;21.20;99.90
36442;DHT22;64346;50.820;16.274;2023-08-01T15:21:45;21.20;99.90
36442;DHT22;64346;50.820;16.274;2023-08-01T15:24:17;21.20;99.90
36442;DHT22;64346;50.820;16.274;2023-08-01T15:26:47;21.30;99.90
36442;DHT22;64346;50.820;16.274;2023-08-01T15:29:15;21.30;99.90
36442;DHT22;64346;50.820;16.274;2023-08-01T15:31:45;21.30;99.90